logo tempoitalia

Diretta Meteo Hyeres, Francialunedì 31 agosto ore 07:00

Mappa
Sereno 21 °C Sereno 24 Ore: T.min 17 T.max 29
Ponente Nord Km/h 3.7 Punto di rugiada: 17 °C Umidità: 77% Visibilità: 10 Km
Il sole sorge alle: 06:58 Il sole tramonta alle: 20:12
31 Agosto 2026 07:00 tempo osservato: Sereno Sereno 21 77 1015 vento: Nord N 3.7
31 Agosto 2026 06:30 tempo osservato: Sereno Sereno 19 82 1015 vento: Nord N 5.5
31 Agosto 2026 06:00 tempo osservato: Sereno Sereno 17 88 1015 vento: Nord N 1.8
31 Agosto 2026 05:30 tempo osservato: Sereno Sereno 18 82 1015 vento: Nord NO 7.4
31 Agosto 2026 05:00 tempo osservato: Sereno Sereno 18 82 1016 vento: Nord N 3.7
31 Agosto 2026 04:30 tempo osservato: Sereno Sereno 20 72 1015 vento: Nord N 5.5
31 Agosto 2026 04:00 tempo osservato: Sereno Sereno 20 72 1015 vento: Nord NO 7.4
31 Agosto 2026 03:30 tempo osservato: Sereno Sereno 21 68 1016 vento: Nord O/NO 9.3
31 Agosto 2026 03:00 tempo osservato: Sereno Sereno 20 77 1016 vento: Nord N 5.5
31 Agosto 2026 02:30 tempo osservato: Sereno Sereno 20 77 1016 vento: Nord O/NO 9.3
31 Agosto 2026 02:00 tempo osservato: Sereno Sereno 19 82 1016 vento: Nord N 3.7
31 Agosto 2026 01:30 tempo osservato: Sereno Sereno 19 88 1016 vento: Nord N 3.7
31 Agosto 2026 01:00 tempo osservato: Sereno Sereno 20 82 1016 vento: Nord N 5.5
31 Agosto 2026 00:30 tempo osservato: Sereno Sereno 20 82 1016 vento: Nord N 3.7
31 Agosto 2026 00:00 tempo osservato: Sereno Sereno 21 77 1016 vento: Nord N 5.5
30 Agosto 2026 23:30 tempo osservato: Sereno Sereno 23 64 1016 vento: Nord N 3.7
30 Agosto 2026 23:00 tempo osservato: Sereno Sereno 25 57 1015 vento: Nord O/NO 7.4
30 Agosto 2026 22:30 tempo osservato: Sereno Sereno 25 57 1015 vento: Nord O/NO 11.1
30 Agosto 2026 22:00 tempo osservato: Sereno Sereno 25 61 1015 vento: Nord O/NO 7.4
30 Agosto 2026 21:30 tempo osservato: Sereno Sereno 25 61 1015 vento: Nord O 11.1
30 Agosto 2026 21:00 tempo osservato: Sereno Sereno 25 65 1015 vento: Nord O/NO 11.1
30 Agosto 2026 20:30 tempo osservato: Sereno Sereno 26 61 1014 vento: Nord O/NO 9.3
30 Agosto 2026 20:00 tempo osservato: Sereno Sereno 26 65 1014 vento: Nord O/SO 18.5
30 Agosto 2026 19:30 tempo osservato: Sereno Sereno 27 61 1014 vento: Nord O/SO 25.9
30 Agosto 2026 19:00 tempo osservato: Sereno Sereno 28 61 1014 vento: Nord O/SO 16.7
30 Agosto 2026 18:30 tempo osservato: Sereno Sereno 28 65 1014 vento: Nord SO 11.1
30 Agosto 2026 18:00 tempo osservato: Sereno Sereno 27 69 1014 vento: Nord S/SO 16.7
30 Agosto 2026 17:30 tempo osservato: Sereno Sereno 28 65 1014 vento: Nord S/SO 14.8
30 Agosto 2026 17:00 tempo osservato: Sereno Sereno 28 61 1014 vento: Nord SO 14.8
30 Agosto 2026 16:30 tempo osservato: Sereno Sereno 28 54 1015 vento: Nord S/SO 14.8
30 Agosto 2026 16:00 tempo osservato: Sereno Sereno 28 54 1015 vento: Nord S/SO 11.1
30 Agosto 2026 15:30 tempo osservato: Sereno Sereno 28 54 1015 vento: Nord S/SO 11.1
30 Agosto 2026 15:00 tempo osservato: Sereno Sereno 28 54 1015 vento: Nord S/SO 13
30 Agosto 2026 14:30 tempo osservato: Sereno Sereno 29 51 1015 vento: Nord S/SO 11.1
30 Agosto 2026 14:00 tempo osservato: Sereno Sereno 28 54 1015 vento: Nord S/SO 13
30 Agosto 2026 13:30 tempo osservato: Sereno Sereno 28 58 1015 vento: Nord S/SO 16.7
30 Agosto 2026 13:00 tempo osservato: Sereno Sereno 28 54 1015 vento: Nord S/SO 13
30 Agosto 2026 12:30 tempo osservato: Sereno Sereno 28 51 1015 vento: Nord S 13
30 Agosto 2026 12:00 tempo osservato: Sereno Sereno 28 51 1016 vento: Nord SE 11.1
30 Agosto 2026 11:30 tempo osservato: Sereno Sereno 28 51 1016 vento: Nord S 9.3
30 Agosto 2026 11:00 tempo osservato: Sereno Sereno 28 48 1016 vento: Nord S 9.3
30 Agosto 2026 10:30 tempo osservato: Sereno Sereno 28 45 1015 vento: Nord N 5.5
30 Agosto 2026 10:00 tempo osservato: Sereno Sereno 27 50 1015 vento: Nord N 5.5
30 Agosto 2026 09:30 tempo osservato: Sereno Sereno 27 47 1015 vento: Nord N 3.7
30 Agosto 2026 09:00 tempo osservato: Sereno Sereno 25 57 1015 vento: Nord N 3.7
30 Agosto 2026 08:30 tempo osservato: Sereno Sereno 23 64 1015 vento: Nord N 5.5
30 Agosto 2026 08:00 tempo osservato: Sereno Sereno 20 77 1015 vento: Nord N 1.8